createdAt,value
2017-06-17T00:00:59.277Z,80.60
2017-06-17T00:03:27.943Z,80.60
2017-06-17T00:05:56.121Z,80.60
2017-06-17T00:08:24.402Z,80.70
2017-06-17T00:10:52.964Z,81.40
2017-06-17T00:13:21.147Z,81.60
2017-06-17T00:15:49.531Z,81.30
2017-06-17T00:18:18.055Z,81.00
2017-06-17T00:20:46.343Z,81.60
2017-06-17T00:23:14.531Z,80.60
2017-06-17T00:25:43.138Z,80.80
2017-06-17T00:28:11.350Z,81.00
2017-06-17T00:30:40.291Z,80.90
2017-06-17T00:33:09.104Z,80.90
2017-06-17T00:35:37.300Z,81.60
2017-06-17T00:38:05.491Z,81.30
2017-06-17T00:40:34.218Z,81.70
2017-06-17T00:43:02.522Z,82.30
2017-06-17T00:45:30.805Z,82.20
2017-06-17T00:48:00.182Z,83.10
2017-06-17T00:50:28.378Z,83.10
2017-06-17T00:52:56.572Z,82.80
2017-06-17T00:55:25.090Z,83.10
2017-06-17T00:57:53.269Z,83.00
2017-06-17T01:00:21.483Z,83.10
2017-06-17T01:02:50.011Z,83.60
2017-06-17T01:05:18.211Z,83.80
2017-06-17T01:07:46.425Z,83.60
2017-06-17T01:10:15.066Z,83.80
2017-06-17T01:12:43.250Z,83.60
2017-06-17T01:15:11.463Z,83.50
2017-06-17T01:17:40.046Z,83.70
2017-06-17T01:20:08.240Z,83.80
2017-06-17T01:22:36.439Z,83.60
2017-06-17T01:25:04.959Z,83.40
2017-06-17T01:27:33.137Z,83.80
2017-06-17T01:30:02.079Z,83.40
2017-06-17T01:32:30.623Z,83.40
2017-06-17T01:34:58.779Z,83.40
2017-06-17T01:37:26.973Z,83.60
2017-06-17T01:39:55.590Z,83.80
2017-06-17T01:42:23.765Z,83.90
2017-06-17T01:44:51.976Z,84.10
2017-06-17T01:47:20.507Z,84.40
2017-06-17T01:49:48.673Z,84.30
2017-06-17T01:52:16.861Z,84.30
2017-06-17T01:54:45.445Z,84.20
2017-06-17T01:57:13.582Z,84.50
2017-06-17T01:59:41.756Z,84.40
2017-06-17T02:02:10.281Z,84.60
2017-06-17T02:04:38.465Z,84.60
2017-06-17T02:07:06.677Z,84.20
2017-06-17T02:09:35.212Z,84.40
2017-06-17T02:12:03.562Z,84.60
2017-06-17T02:14:31.733Z,84.60
2017-06-17T02:17:00.385Z,84.60
2017-06-17T02:19:29.375Z,84.40
2017-06-17T02:21:57.542Z,84.30
2017-06-17T02:24:26.834Z,84.30
2017-06-17T02:26:55.017Z,84.40
2017-06-17T02:29:23.961Z,84.00
2017-06-17T02:31:52.470Z,84.00
2017-06-17T02:34:21.817Z,84.20
2017-06-17T02:36:50.046Z,84.20
2017-06-17T02:39:18.598Z,84.40
2017-06-17T02:41:46.795Z,84.40
2017-06-17T02:44:14.965Z,84.60
2017-06-17T02:46:43.501Z,84.50
2017-06-17T02:49:11.716Z,84.90
2017-06-17T02:51:39.897Z,85.00
2017-06-17T02:54:08.457Z,85.70
2017-06-17T02:56:36.644Z,85.20
2017-06-17T02:59:04.831Z,85.10
2017-06-17T03:01:33.382Z,85.00
2017-06-17T03:04:01.551Z,85.30
2017-06-17T03:06:29.717Z,85.40
2017-06-17T03:08:58.226Z,85.20
2017-06-17T03:11:29.030Z,85.20
2017-06-17T03:13:57.206Z,85.20
2017-06-17T03:16:25.910Z,85.40
2017-06-17T03:18:54.113Z,85.60
2017-06-17T03:21:23.038Z,85.40
2017-06-17T03:23:51.545Z,85.20
2017-06-17T03:26:19.723Z,85.50
2017-06-17T03:28:47.926Z,85.20
2017-06-17T03:31:16.477Z,85.20
2017-06-17T03:33:44.643Z,85.00
2017-06-17T03:36:12.810Z,85.60
2017-06-17T03:38:41.407Z,84.80
2017-06-17T03:41:09.599Z,84.80
2017-06-17T03:43:37.792Z,85.00
2017-06-17T03:46:06.339Z,85.00
2017-06-17T03:48:34.630Z,85.00
2017-06-17T03:51:02.803Z,85.00
2017-06-17T03:53:31.371Z,84.70
2017-06-17T03:55:59.554Z,84.30
2017-06-17T03:58:27.727Z,84.20
2017-06-17T04:00:56.227Z,84.10
2017-06-17T04:03:24.399Z,84.30
2017-06-17T04:05:53.339Z,83.30
2017-06-17T04:08:21.942Z,83.20
2017-06-17T04:10:50.205Z,83.40
2017-06-17T04:13:18.407Z,83.60
2017-06-17T04:15:46.971Z,83.20
2017-06-17T04:18:15.220Z,83.10
2017-06-17T04:20:43.398Z,82.70
2017-06-17T04:23:12.031Z,83.00
2017-06-17T04:25:40.211Z,82.80
2017-06-17T04:28:09.154Z,82.40
2017-06-17T04:30:37.738Z,82.30
2017-06-17T04:33:05.919Z,82.40
2017-06-17T04:35:34.103Z,82.00
2017-06-17T04:38:02.643Z,81.60
2017-06-17T04:40:30.831Z,81.40
2017-06-17T04:42:59.019Z,81.70
2017-06-17T04:45:27.559Z,81.00
2017-06-17T04:47:55.728Z,80.30
2017-06-17T04:50:23.899Z,79.80
2017-06-17T04:52:52.534Z,80.00
2017-06-17T04:55:20.695Z,80.30
2017-06-17T04:57:48.878Z,80.10
2017-06-17T05:00:17.455Z,80.50
2017-06-17T05:02:45.813Z,80.30
2017-06-17T05:05:13.994Z,80.50
2017-06-17T05:07:42.603Z,79.90
2017-06-17T05:10:10.775Z,79.30
2017-06-17T05:12:38.951Z,77.50
2017-06-17T05:15:07.491Z,78.00
2017-06-17T05:17:35.683Z,77.00
2017-06-17T05:20:03.844Z,76.90
2017-06-17T05:22:32.366Z,76.20
2017-06-17T05:25:00.930Z,75.80
2017-06-17T05:27:29.176Z,76.10
2017-06-17T05:29:57.786Z,76.20
2017-06-17T05:32:25.961Z,75.70
2017-06-17T05:34:54.331Z,73.30
2017-06-17T05:37:23.994Z,73.40
2017-06-17T05:39:52.269Z,73.40
2017-06-17T05:42:20.451Z,71.90
2017-06-17T05:44:49.078Z,70.90
2017-06-17T05:47:17.267Z,70.50
2017-06-17T05:49:45.473Z,68.80
2017-06-17T05:52:14.223Z,67.50
2017-06-17T05:54:42.417Z,66.70
2017-06-17T05:57:10.627Z,66.90
2017-06-17T05:59:39.139Z,69.10
2017-06-17T06:02:07.339Z,70.10
2017-06-17T06:04:35.540Z,69.30
2017-06-17T06:07:04.149Z,67.40
2017-06-17T06:09:32.344Z,67.30
2017-06-17T06:12:00.533Z,65.10
2017-06-17T06:14:29.106Z,62.70
2017-06-17T06:16:57.301Z,62.30
2017-06-17T06:19:25.489Z,64.20
2017-06-17T06:21:53.999Z,64.30
2017-06-17T06:24:22.159Z,65.50
2017-06-17T06:26:50.330Z,64.80
2017-06-17T06:29:18.834Z,64.30
2017-06-17T06:31:47.026Z,63.10
2017-06-17T06:34:15.207Z,62.60
2017-06-17T06:36:43.782Z,64.20
2017-06-17T06:39:12.091Z,64.70
2017-06-17T06:41:41.036Z,62.90
2017-06-17T06:44:09.642Z,62.90
2017-06-17T06:46:37.935Z,61.30
2017-06-17T06:49:06.876Z,61.70
2017-06-17T06:51:35.506Z,60.90
2017-06-17T06:54:04.441Z,61.40
2017-06-17T06:56:32.644Z,61.30
2017-06-17T06:59:01.197Z,61.70
2017-06-17T07:01:29.478Z,62.00
2017-06-17T07:03:57.694Z,63.70
2017-06-17T07:06:26.255Z,64.90
2017-06-17T07:08:54.432Z,64.70
2017-06-17T07:11:22.679Z,64.00
2017-06-17T07:13:51.395Z,64.50
2017-06-17T07:16:19.578Z,63.60
2017-06-17T07:18:47.748Z,64.90
2017-06-17T07:21:16.258Z,63.40
2017-06-17T07:23:44.450Z,64.80
2017-06-17T07:26:12.642Z,64.30
2017-06-17T07:28:41.368Z,62.60
2017-06-17T07:31:09.554Z,62.60
2017-06-17T07:33:38.507Z,62.40
2017-06-17T07:36:07.219Z,62.30
2017-06-17T07:38:35.398Z,63.20
2017-06-17T07:41:04.338Z,64.50
2017-06-17T07:43:32.943Z,63.70
2017-06-17T07:46:01.193Z,63.60
2017-06-17T07:48:29.364Z,62.50
2017-06-17T07:50:57.874Z,61.60
2017-06-17T07:53:26.082Z,62.10
2017-06-17T07:55:54.278Z,61.20
2017-06-17T07:58:22.912Z,62.60
2017-06-17T08:00:51.120Z,61.10
2017-06-17T08:03:19.349Z,62.50
2017-06-17T08:05:47.871Z,61.80
2017-06-17T08:08:16.797Z,61.60
2017-06-17T08:10:44.944Z,61.50
2017-06-17T08:13:13.471Z,61.90
2017-06-17T08:15:41.658Z,61.80
2017-06-17T08:18:09.821Z,61.50
2017-06-17T08:20:38.321Z,60.80
2017-06-17T08:23:06.488Z,58.70
2017-06-17T08:25:34.677Z,59.20
2017-06-17T08:28:03.993Z,59.00
2017-06-17T08:30:32.955Z,60.30
2017-06-17T08:33:01.151Z,60.20
2017-06-17T08:35:30.513Z,59.80
2017-06-17T08:37:58.677Z,59.80
2017-06-17T08:40:26.948Z,59.10
2017-06-17T08:42:55.491Z,59.70
2017-06-17T08:45:24.459Z,58.80
2017-06-17T08:47:52.662Z,58.70
2017-06-17T08:50:21.173Z,59.00
2017-06-17T08:52:49.475Z,59.00
2017-06-17T08:55:17.675Z,57.70
2017-06-17T08:57:46.959Z,58.20
2017-06-17T09:00:15.146Z,58.00
2017-06-17T09:02:44.090Z,58.00
2017-06-17T09:05:12.761Z,58.00
2017-06-17T09:07:41.019Z,58.20
2017-06-17T09:10:09.238Z,56.10
2017-06-17T09:12:37.923Z,56.90
2017-06-17T09:15:06.259Z,57.00
2017-06-17T09:17:34.467Z,57.50
2017-06-17T09:20:03.093Z,57.00
2017-06-17T09:22:32.042Z,56.90
2017-06-17T09:25:01.779Z,57.00
2017-06-17T09:27:32.177Z,57.30
2017-06-17T09:30:00.470Z,58.20
2017-06-17T09:32:28.642Z,58.30
2017-06-17T09:34:57.285Z,56.60
2017-06-17T09:37:25.468Z,55.50
2017-06-17T09:39:53.679Z,56.90
2017-06-17T09:42:22.302Z,54.70
2017-06-17T09:44:50.575Z,55.80
2017-06-17T09:47:18.827Z,56.90
2017-06-17T09:49:48.125Z,56.10
2017-06-17T09:52:17.135Z,56.10
2017-06-17T09:54:45.337Z,56.00
2017-06-17T09:57:13.887Z,55.80
2017-06-17T09:59:42.113Z,55.50
2017-06-17T10:02:14.058Z,56.10
2017-06-17T10:04:42.250Z,57.20
2017-06-17T10:07:10.480Z,56.40
2017-06-17T10:09:39.104Z,56.70
2017-06-17T10:12:07.385Z,56.40
2017-06-17T10:14:35.571Z,57.50
2017-06-17T10:17:04.257Z,57.80
2017-06-17T10:19:32.469Z,57.00
2017-06-17T10:22:00.656Z,56.20
2017-06-17T10:24:29.419Z,56.80
2017-06-17T10:26:57.627Z,57.00
2017-06-17T10:29:25.849Z,56.60
2017-06-17T10:31:54.522Z,55.00
2017-06-17T10:34:22.710Z,56.80
2017-06-17T10:36:50.872Z,54.00
2017-06-17T10:39:19.427Z,53.50
2017-06-17T10:41:47.695Z,54.10
2017-06-17T10:44:16.087Z,54.20
2017-06-17T10:46:44.680Z,54.60
2017-06-17T10:49:12.920Z,54.70
2017-06-17T10:51:41.305Z,56.80
2017-06-17T10:54:09.832Z,54.30
2017-06-17T10:56:38.143Z,54.60
2017-06-17T10:59:06.347Z,55.00
2017-06-17T11:01:36.509Z,55.10
2017-06-17T11:04:05.452Z,54.90
2017-06-17T11:06:33.632Z,54.80
2017-06-17T11:09:02.219Z,53.50
2017-06-17T11:11:30.465Z,53.00
2017-06-17T11:13:58.677Z,54.00
2017-06-17T11:16:27.259Z,53.90
2017-06-17T11:18:55.456Z,52.60
2017-06-17T11:21:23.619Z,53.60
2017-06-17T11:23:52.184Z,51.80
2017-06-17T11:26:20.402Z,53.00
2017-06-17T11:28:48.617Z,53.40
2017-06-17T11:31:16.855Z,54.70
2017-06-17T11:33:45.029Z,54.00
2017-06-17T11:36:13.228Z,52.50
2017-06-17T11:38:41.822Z,52.20
2017-06-17T11:41:10.017Z,51.20
2017-06-17T11:43:38.239Z,52.30
2017-06-17T11:46:06.535Z,52.30
2017-06-17T11:48:34.741Z,52.20
2017-06-17T11:51:02.952Z,52.40
2017-06-17T11:53:31.484Z,54.30
2017-06-17T11:55:59.727Z,52.10
2017-06-17T11:58:27.995Z,54.50
2017-06-17T12:00:56.616Z,54.30
2017-06-17T12:03:24.811Z,52.40
2017-06-17T12:05:53.125Z,53.70
2017-06-17T12:08:21.665Z,52.90
2017-06-17T12:10:49.864Z,54.60
2017-06-17T12:13:18.077Z,52.50
2017-06-17T12:15:46.679Z,52.50
2017-06-17T12:18:14.860Z,51.90
2017-06-17T12:20:43.063Z,53.40
2017-06-17T12:23:12.008Z,52.90
2017-06-17T12:25:40.224Z,52.30
2017-06-17T12:28:09.201Z,52.80
2017-06-17T12:30:37.465Z,52.80
2017-06-17T12:33:05.723Z,51.90
2017-06-17T12:35:33.914Z,53.70
2017-06-17T12:38:02.492Z,55.10
2017-06-17T12:40:30.759Z,53.10
2017-06-17T12:42:58.957Z,52.90
2017-06-17T12:45:28.223Z,54.30
2017-06-17T12:47:56.440Z,53.90
2017-06-17T12:50:24.664Z,51.70
2017-06-17T12:52:53.324Z,51.20
2017-06-17T12:55:21.561Z,51.10
2017-06-17T12:57:50.532Z,52.90
2017-06-17T13:00:19.818Z,52.50
2017-06-17T13:02:48.079Z,53.30
2017-06-17T13:05:16.260Z,51.80
2017-06-17T13:07:44.792Z,52.50
2017-06-17T13:10:12.994Z,51.80
2017-06-17T13:12:41.164Z,53.40
2017-06-17T13:15:10.856Z,51.80
2017-06-17T13:17:39.055Z,53.70
2017-06-17T13:20:07.264Z,52.00
2017-06-17T13:22:35.903Z,52.50
2017-06-17T13:25:04.113Z,52.00
2017-06-17T13:27:32.288Z,51.10
2017-06-17T13:30:00.804Z,51.80
2017-06-17T13:32:29.761Z,53.90
2017-06-17T13:34:58.072Z,54.00
2017-06-17T13:37:26.338Z,51.40
2017-06-17T13:39:55.302Z,52.70
2017-06-17T13:42:24.522Z,52.00
2017-06-17T13:44:53.195Z,51.50
2017-06-17T13:47:21.482Z,52.90
2017-06-17T13:49:49.683Z,52.90
2017-06-17T13:52:17.912Z,52.30
2017-06-17T13:54:46.088Z,54.10
2017-06-17T13:57:14.299Z,55.50
2017-06-17T13:59:42.534Z,55.10
2017-06-17T14:02:10.775Z,53.50
2017-06-17T14:04:39.003Z,54.80
2017-06-17T14:07:08.349Z,56.50
2017-06-17T14:09:36.563Z,56.50
2017-06-17T14:12:04.850Z,54.90
2017-06-17T14:14:33.072Z,54.20
2017-06-17T14:17:01.357Z,55.50
2017-06-17T14:19:29.568Z,55.60
2017-06-17T14:22:03.623Z,55.90
2017-06-17T14:24:31.793Z,54.10
2017-06-17T14:27:00.035Z,54.20
2017-06-17T14:29:29.556Z,54.60
2017-06-17T14:31:58.486Z,54.30
2017-06-17T14:34:26.679Z,54.30
2017-06-17T14:36:55.317Z,54.40
2017-06-17T14:39:23.494Z,53.80
2017-06-17T14:41:51.667Z,55.00
2017-06-17T14:44:20.295Z,55.80
2017-06-17T14:46:48.462Z,54.40
2017-06-17T14:49:16.653Z,54.20
2017-06-17T14:51:45.265Z,55.00
2017-06-17T14:54:14.218Z,56.00
2017-06-17T14:56:42.387Z,56.00
2017-06-17T14:59:10.597Z,56.90
2017-06-17T15:01:39.545Z,59.70
2017-06-17T15:04:07.733Z,59.70
2017-06-17T15:06:36.318Z,59.90
2017-06-17T15:09:04.551Z,57.10
2017-06-17T15:11:32.755Z,57.70
2017-06-17T15:14:01.059Z,55.90
2017-06-17T15:16:29.987Z,55.90
2017-06-17T15:18:58.178Z,55.90
2017-06-17T15:21:26.720Z,56.20
2017-06-17T15:23:55.679Z,57.60
2017-06-17T15:26:23.874Z,57.70
2017-06-17T15:28:53.183Z,57.90
2017-06-17T15:31:22.159Z,57.90
2017-06-17T15:33:50.322Z,57.90
2017-06-17T15:36:18.847Z,57.30
2017-06-17T15:38:47.040Z,59.10
2017-06-17T15:41:15.196Z,59.30
2017-06-17T15:43:44.656Z,58.70
2017-06-17T15:46:12.835Z,58.00
2017-06-17T15:48:41.302Z,58.70
2017-06-17T15:51:10.564Z,59.60
2017-06-17T15:53:38.809Z,59.50
2017-06-17T15:56:07.760Z,59.60
2017-06-17T15:58:35.958Z,59.50
2017-06-17T16:01:04.881Z,58.90
2017-06-17T16:03:33.050Z,58.80
2017-06-17T16:06:01.265Z,57.60
2017-06-17T16:08:29.531Z,58.60
2017-06-17T16:10:57.722Z,58.60
2017-06-17T16:13:26.302Z,56.80
2017-06-17T16:15:54.545Z,57.70
2017-06-17T16:18:22.741Z,56.40
2017-06-17T16:20:51.323Z,57.30
2017-06-17T16:23:19.571Z,57.30
2017-06-17T16:25:47.759Z,56.50
2017-06-17T16:28:16.254Z,58.00
2017-06-17T16:30:44.437Z,57.70
2017-06-17T16:33:12.605Z,58.00
2017-06-17T16:35:40.820Z,58.30
2017-06-17T16:38:09.015Z,57.00
2017-06-17T16:40:37.203Z,57.40
2017-06-17T16:43:05.423Z,57.60
2017-06-17T16:45:34.401Z,60.10
2017-06-17T16:48:02.575Z,59.80
2017-06-17T16:50:30.783Z,59.90
2017-06-17T16:52:58.950Z,60.40
2017-06-17T16:55:27.879Z,61.20
2017-06-17T16:57:56.348Z,61.20
2017-06-17T17:00:24.806Z,60.70
2017-06-17T17:02:53.026Z,62.00
2017-06-17T17:05:21.240Z,62.10
2017-06-17T17:07:50.167Z,63.20
2017-06-17T17:10:18.334Z,63.30
2017-06-17T17:12:46.602Z,64.20
2017-06-17T17:15:14.771Z,64.80
2017-06-17T17:17:42.951Z,65.70
2017-06-17T17:20:11.587Z,66.50
2017-06-17T17:22:39.775Z,66.90
2017-06-17T17:25:07.956Z,68.00
2017-06-17T17:27:36.545Z,68.40
2017-06-17T17:30:04.716Z,69.30
2017-06-17T17:32:33.671Z,69.70
2017-06-17T17:35:02.265Z,69.70
2017-06-17T17:37:30.456Z,69.40
2017-06-17T17:39:59.417Z,69.30
2017-06-17T17:42:27.996Z,69.30
2017-06-17T17:44:56.162Z,68.80
2017-06-17T17:47:24.332Z,69.50
2017-06-17T17:49:52.924Z,69.00
2017-06-17T17:52:21.103Z,69.50
2017-06-17T17:54:49.277Z,70.60
2017-06-17T17:57:17.865Z,70.40
2017-06-17T17:59:46.074Z,70.90
2017-06-17T18:02:14.263Z,71.50
2017-06-17T18:04:42.878Z,71.20
2017-06-17T18:07:11.075Z,71.50
2017-06-17T18:09:39.271Z,71.60
2017-06-17T18:12:08.269Z,72.00
2017-06-17T18:14:36.455Z,72.10
2017-06-17T18:17:04.633Z,72.20
2017-06-17T18:19:32.990Z,72.60
2017-06-17T18:22:02.009Z,73.10
2017-06-17T18:24:30.234Z,73.10
2017-06-17T18:26:58.438Z,74.50
2017-06-17T18:29:26.622Z,74.00
2017-06-17T18:31:54.804Z,74.40
2017-06-17T18:34:23.335Z,74.30
2017-06-17T18:36:51.491Z,74.70
2017-06-17T18:39:19.660Z,74.80
2017-06-17T18:41:47.916Z,74.70
2017-06-17T18:44:16.105Z,75.00
2017-06-17T18:46:44.288Z,74.90
2017-06-17T18:49:12.882Z,74.30
2017-06-17T18:51:41.099Z,73.10
2017-06-17T18:54:09.332Z,73.00
2017-06-17T18:56:37.847Z,72.60
2017-06-17T18:59:06.069Z,71.60
2017-06-17T19:01:34.251Z,72.10
2017-06-17T19:04:02.798Z,72.10
2017-06-17T19:06:31.017Z,71.70
2017-06-17T19:08:59.204Z,71.80
2017-06-17T19:11:28.567Z,73.20
2017-06-17T19:13:56.876Z,73.20
2017-06-17T19:16:25.069Z,73.50
2017-06-17T19:18:53.693Z,73.20
2017-06-17T19:21:21.864Z,73.80
2017-06-17T19:23:50.055Z,74.30
2017-06-17T19:26:18.294Z,74.40
2017-06-17T19:28:46.530Z,74.60
2017-06-17T19:31:14.717Z,75.50
2017-06-17T19:33:42.935Z,75.80
2017-06-17T19:36:11.123Z,75.80
2017-06-17T19:38:39.286Z,76.10
2017-06-17T19:43:41.993Z,77.20
2017-06-17T19:46:10.551Z,77.90
2017-06-17T19:48:38.738Z,78.60
2017-06-17T19:51:06.919Z,79.00
2017-06-17T19:53:35.488Z,79.60
2017-06-17T19:56:03.661Z,79.80
2017-06-17T19:58:31.896Z,80.50
2017-06-17T20:01:00.411Z,80.90
2017-06-17T20:03:28.624Z,81.10
2017-06-17T20:05:56.871Z,81.50
2017-06-17T20:08:25.172Z,82.00
2017-06-17T20:10:53.335Z,82.20
2017-06-17T20:13:21.570Z,82.50
2017-06-17T20:15:53.570Z,82.90
2017-06-17T20:18:21.746Z,83.50
2017-06-17T20:20:49.958Z,83.60
2017-06-17T20:23:18.212Z,83.60
2017-06-17T20:25:46.393Z,84.10
2017-06-17T20:28:14.667Z,84.60
2017-06-17T20:30:44.030Z,85.60
2017-06-17T20:33:12.230Z,85.60
2017-06-17T20:35:41.204Z,87.30
2017-06-17T20:38:09.715Z,86.60
2017-06-17T20:40:38.650Z,87.10
2017-06-17T20:43:06.850Z,87.00
2017-06-17T20:45:35.121Z,87.20
2017-06-17T20:48:03.285Z,87.40
2017-06-17T20:50:31.505Z,87.80
2017-06-17T20:53:00.166Z,87.50
2017-06-17T20:55:28.350Z,87.70
2017-06-17T20:57:57.627Z,87.80
2017-06-17T21:00:25.866Z,87.80
2017-06-17T21:02:54.063Z,87.60
2017-06-17T21:05:22.285Z,87.60
2017-06-17T21:07:51.275Z,88.30
2017-06-17T21:10:20.297Z,87.60
2017-06-17T21:12:48.565Z,87.50
2017-06-17T21:15:17.192Z,87.60
2017-06-17T21:17:45.452Z,87.00
2017-06-17T21:20:13.724Z,86.70
2017-06-17T21:22:42.363Z,86.40
2017-06-17T21:25:10.597Z,86.40
2017-06-17T21:27:38.799Z,86.30
2017-06-17T21:30:08.166Z,86.70
2017-06-17T21:32:36.363Z,86.70
2017-06-17T21:35:05.504Z,86.90
2017-06-17T21:37:33.715Z,86.40
2017-06-17T21:40:02.182Z,85.80
2017-06-17T21:42:30.514Z,85.60
2017-06-17T21:45:00.476Z,85.40
2017-06-17T21:47:28.655Z,85.90
2017-06-17T21:49:57.439Z,85.40
2017-06-17T21:52:25.646Z,85.10
2017-06-17T21:54:55.126Z,85.40
2017-06-17T21:57:23.303Z,85.30
2017-06-17T21:59:51.538Z,85.30
2017-06-17T22:02:19.744Z,85.40
2017-06-17T22:04:47.932Z,85.50
2017-06-17T22:07:16.522Z,85.30
2017-06-17T22:09:44.760Z,85.50
2017-06-17T22:12:12.980Z,85.40
2017-06-17T22:14:42.003Z,85.20
2017-06-17T22:17:10.155Z,85.10
2017-06-17T22:19:38.316Z,85.30
2017-06-17T22:22:07.651Z,85.50
2017-06-17T22:24:35.826Z,85.50
2017-06-17T22:27:04.092Z,85.80
2017-06-17T22:29:32.718Z,86.00
2017-06-17T22:32:00.924Z,86.30
2017-06-17T22:34:29.853Z,86.90
2017-06-17T22:36:58.457Z,86.20
2017-06-17T22:39:27.566Z,86.20
2017-06-17T22:41:55.760Z,86.20
2017-06-17T22:44:25.075Z,86.30
2017-06-17T22:46:53.306Z,86.20
2017-06-17T22:49:21.499Z,86.80
2017-06-17T22:51:50.021Z,86.80
2017-06-17T22:54:18.183Z,86.90
2017-06-17T22:56:46.365Z,86.80
2017-06-17T22:59:14.987Z,86.90
2017-06-17T23:01:43.189Z,87.30
2017-06-17T23:04:12.114Z,87.20
2017-06-17T23:06:40.330Z,87.20
2017-06-17T23:09:08.543Z,87.10
2017-06-17T23:11:36.715Z,87.10
2017-06-17T23:14:05.252Z,87.50
2017-06-17T23:16:33.415Z,87.70
2017-06-17T23:19:01.647Z,87.20
2017-06-17T23:21:29.870Z,87.40
2017-06-17T23:23:58.030Z,87.20
2017-06-17T23:26:26.221Z,87.10
2017-06-17T23:28:55.258Z,87.80
2017-06-17T23:31:23.427Z,87.70
2017-06-17T23:33:51.614Z,87.90
2017-06-17T23:36:22.485Z,88.10
2017-06-17T23:38:50.934Z,89.20
2017-06-17T23:41:19.131Z,88.80
2017-06-17T23:43:47.343Z,89.00
2017-06-17T23:46:15.543Z,89.10
2017-06-17T23:48:43.712Z,89.00
2017-06-17T23:51:12.343Z,88.90
2017-06-17T23:53:40.543Z,88.80
2017-06-17T23:56:08.741Z,89.00
2017-06-17T23:58:36.975Z,90.00
